Time;durP1;ratioP1;P1;durP2;ratioP2;P2;SDS_P1;SDS_P2;PMS_P1;PMS_P2;Temp;Humidity;BMP_temperature;BMP_pressure;BME280_temperature;BME280_humidity;BME280_pressure;Samples;Min_cycle;Max_cycle;Signal;HPM_P1;HPM_P2
2021/09/01 00:01:15;;;;;;;12.73;7.15;;;;;;;21.60;64.07;100292.00;5031831;28;20029;-65
2021/09/01 00:03:40;;;;;;;13.65;8.07;;;;;;;21.90;64.02;100345.06;5031219;28;20029;-66
2021/09/01 00:06:06;;;;;;;13.00;7.88;;;;;;;21.82;64.25;100336.44;5032926;28;20028;-64
2021/09/01 00:08:33;;;;;;;9.15;6.93;;;;;;;21.65;65.34;100347.97;5034000;28;20080;-65
2021/09/01 00:10:58;;;;;;;10.23;6.97;;;;;;;21.64;65.19;100340.13;5032152;28;20026;-67
2021/09/01 00:13:24;;;;;;;8.25;6.38;;;;;;;21.67;65.04;100341.84;5031944;28;20029;-65
2021/09/01 00:15:49;;;;;;;9.23;7.32;;;;;;;21.31;66.18;100301.03;5039274;28;20407;-62
2021/09/01 00:18:15;;;;;;;8.68;7.20;;;;;;;21.44;65.88;100325.41;5045143;28;20035;-66
2021/09/01 00:20:40;;;;;;;10.25;6.85;;;;;;;21.37;66.41;100339.50;5037975;28;20017;-65
2021/09/01 00:23:06;;;;;;;9.43;6.97;;;;;;;21.40;66.14;100349.09;5051556;28;20108;-63
2021/09/01 00:25:32;;;;;;;9.02;6.45;;;;;;;21.42;66.09;100347.31;5051580;28;20471;-64
2021/09/01 00:27:57;;;;;;;10.70;6.68;;;;;;;21.60;65.39;100351.56;5051254;28;20162;-67
2021/09/01 00:30:24;;;;;;;7.60;6.80;;;;;;;21.55;65.48;100348.94;5051299;28;20507;-66
2021/09/01 00:32:50;;;;;;;8.23;6.90;;;;;;;21.59;65.72;100347.19;5051407;28;20021;-64
2021/09/01 00:35:15;;;;;;;7.93;6.90;;;;;;;21.58;65.96;100348.97;5047295;28;20033;-67
2021/09/01 00:37:41;;;;;;;9.82;6.55;;;;;;;21.59;66.00;100341.94;5050753;28;20059;-69
2021/09/01 00:40:07;;;;;;;8.20;6.00;;;;;;;21.61;65.59;100342.78;5050269;28;20693;-67
2021/09/01 00:42:36;;;;;;;11.15;6.68;;;;;;;21.64;65.68;100348.00;5031735;28;20072;-65
2021/09/01 00:45:04;;;;;;;9.30;6.82;;;;;;;21.60;66.23;100343.69;5040968;28;20154;-68
2021/09/01 00:47:30;;;;;;;7.28;6.50;;;;;;;21.61;66.32;100350.69;5046020;28;20120;-68
2021/09/01 00:49:55;;;;;;;6.97;6.28;;;;;;;21.43;66.85;100322.78;5043595;28;20127;-67
2021/09/01 00:52:22;;;;;;;7.90;6.38;;;;;;;21.51;66.31;100363.00;5037481;28;20392;-67
2021/09/01 00:54:48;;;;;;;8.10;6.10;;;;;;;21.41;66.78;100358.69;5032833;28;20104;-69
2021/09/01 00:57:14;;;;;;;7.80;6.32;;;;;;;21.20;66.67;100326.53;5032922;28;20498;-64
2021/09/01 00:59:43;;;;;;;8.07;7.05;;;;;;;21.24;66.96;100351.00;5032829;28;20033;-69
2021/09/01 01:02:09;;;;;;;8.23;6.70;;;;;;;21.29;66.83;100336.06;5031261;28;20029;-66
2021/09/01 01:04:36;;;;;;;7.22;6.45;;;;;;;21.37;67.13;100354.38;5050939;28;20037;-64
2021/09/01 01:07:09;;;;;;;9.13;6.75;;;;;;;21.34;67.71;100361.38;5050449;28;20576;-66
2021/09/01 01:09:36;;;;;;;10.05;7.45;;;;;;;21.10;67.28;100309.97;5051157;28;20032;-65
2021/09/01 01:12:13;;;;;;;7.90;6.60;;;;;;;21.44;67.11;100359.53;5050897;28;20033;-65
2021/09/01 01:14:40;;;;;;;9.20;7.03;;;;;;;21.31;67.98;100356.19;5051021;28;20032;-63
2021/09/01 01:17:10;;;;;;;7.65;6.80;;;;;;;21.16;68.12;100357.19;5050570;28;20041;-64
2021/09/01 01:19:43;;;;;;;9.65;6.75;;;;;;;21.05;68.52;100345.91;5051061;28;20116;-66
2021/09/01 01:22:12;;;;;;;8.95;6.93;;;;;;;21.14;68.12;100347.56;5053914;28;20056;-67
2021/09/01 01:25:05;;;;;;;13.95;7.35;;;;;;;21.08;69.06;100347.63;5055166;28;20398;-68
2021/09/01 01:27:41;;;;;;;12.35;7.57;;;;;;;20.83;68.22;100303.22;4973269;28;20035;-66
2021/09/01 01:30:13;;;;;;;7.80;6.97;;;;;;;21.11;68.58;100348.47;4957528;28;20030;-65
2021/09/01 01:32:40;;;;;;;9.88;6.80;;;;;;;21.17;68.32;100331.78;4973795;28;20031;-66
2021/09/01 01:35:07;;;;;;;7.75;6.93;;;;;;;21.42;68.06;100347.31;4973653;28;20428;-63
2021/09/01 01:37:32;;;;;;;9.43;6.97;;;;;;;21.63;67.55;100331.38;4973592;28;20033;-65
2021/09/01 01:39:58;;;;;;;10.23;7.05;;;;;;;21.84;65.79;100333.78;4957147;28;20039;-67
2021/09/01 01:42:23;;;;;;;8.98;6.97;;;;;;;22.09;65.04;100344.84;4973528;28;20038;-67
2021/09/01 01:44:49;;;;;;;10.38;5.97;;;;;;;22.35;64.07;100348.91;4973332;28;20093;-67
2021/09/01 01:47:14;;;;;;;9.30;6.38;;;;;;;22.54;62.47;100355.69;4973575;28;20066;-72
2021/09/01 01:49:40;;;;;;;8.20;6.07;;;;;;;22.70;61.46;100350.19;4973481;28;20030;-64
2021/09/01 01:52:05;;;;;;;7.47;5.78;;;;;;;22.74;60.11;100334.34;4973513;28;20035;-64
2021/09/01 01:54:31;;;;;;;10.27;6.32;;;;;;;22.73;60.39;100318.53;4972996;28;20560;-68
2021/09/01 01:56:56;;;;;;;16.10;6.68;;;;;;;;;;4973561;28;20049;-62
2021/09/01 01:59:22;;;;;;;15.85;6.38;;;;;;;22.78;60.65;100306.22;4973122;28;20077;-68
2021/09/01 02:01:48;;;;;;;18.98;6.18;;;;;;;23.00;59.32;100340.94;4973356;28;20084;-67
2021/09/01 02:04:13;;;;;;;8.68;6.13;;;;;;;22.93;58.92;100350.69;5003888;28;20072;-64
2021/09/01 02:06:39;;;;;;;9.48;6.25;;;;;;;22.78;59.31;100346.53;5054136;28;20032;-65
2021/09/01 02:09:04;;;;;;;7.28;6.20;;;;;;;22.38;59.37;100297.16;5053510;28;20411;-66
2021/09/01 02:11:30;;;;;;;7.18;5.75;;;;;;;22.41;60.88;100339.19;5053718;28;20040;-64
2021/09/01 02:13:55;;;;;;;7.38;6.53;;;;;;;22.44;61.01;100333.91;5054013;28;20613;-64
2021/09/01 02:16:21;;;;;;;9.77;6.78;;;;;;;22.54;61.24;100339.91;5054090;28;20035;-63
2021/09/01 02:18:46;;;;;;;11.40;6.15;;;;;;;22.48;61.46;100318.06;5053933;28;20060;-65
2021/09/01 02:21:12;;;;;;;18.45;6.70;;;;;;;22.60;62.44;100338.94;5053935;28;20065;-63
2021/09/01 02:23:37;;;;;;;8.68;6.57;;;;;;;22.42;63.40;100333.06;5053810;28;20055;-63
2021/09/01 02:26:03;;;;;;;11.95;6.72;;;;;;;22.29;62.91;100340.22;5036140;28;20025;-65
2021/09/01 02:28:28;;;;;;;11.32;6.15;;;;;;;22.22;62.55;100335.03;5053180;28;20029;-63
2021/09/01 02:30:54;;;;;;;9.20;6.47;;;;;;;22.23;62.85;100342.03;5053854;28;20068;-69
2021/09/01 02:33:19;;;;;;;7.88;6.05;;;;;;;22.14;61.71;100333.41;5053033;28;20094;-67
2021/09/01 02:35:45;;;;;;;9.65;5.53;;;;;;;22.12;60.44;100337.81;5018298;28;20059;-64
2021/09/01 02:38:10;;;;;;;8.60;5.60;;;;;;;22.07;60.33;100320.34;5053270;28;20040;-64
2021/09/01 02:40:36;;;;;;;6.70;4.88;;;;;;;22.23;60.30;100332.41;5052045;28;20021;-69
2021/09/01 02:43:01;;;;;;;6.68;4.95;;;;;;;22.14;59.58;100343.03;5053518;28;20021;-65
2021/09/01 02:45:26;;;;;;;7.13;4.88;;;;;;;21.98;59.39;100327.47;5053502;28;20032;-70
2021/09/01 02:47:52;;;;;;;6.32;4.55;;;;;;;22.06;58.91;100343.13;5052223;28;20032;-65
2021/09/01 02:50:17;;;;;;;6.68;4.38;;;;;;;21.96;58.50;100345.00;5053343;28;20025;-64
2021/09/01 02:52:43;;;;;;;7.75;4.50;;;;;;;21.55;59.38;100316.56;5053198;28;20013;-66
2021/09/01 02:55:09;;;;;;;11.82;4.50;;;;;;;21.59;59.29;100347.19;5053327;28;21204;-63
2021/09/01 02:57:35;;;;;;;9.25;4.70;;;;;;;21.47;59.36;100351.66;5052959;28;20025;-64
2021/09/01 03:00:00;;;;;;;7.43;5.18;;;;;;;21.13;60.57;100328.34;5053207;28;20021;-65
2021/09/01 03:02:26;;;;;;;6.57;4.60;;;;;;;21.05;61.68;100353.78;5052808;28;20044;-65
2021/09/01 03:04:51;;;;;;;6.68;4.97;;;;;;;20.85;61.02;100360.03;5052818;28;20383;-64
2021/09/01 03:07:17;;;;;;;10.88;4.63;;;;;;;20.73;61.44;100361.88;5052724;28;20068;-68
2021/09/01 03:09:42;;;;;;;6.32;4.25;;;;;;;20.58;62.36;100366.31;5052290;28;20137;-64
2021/09/01 03:12:07;;;;;;;9.38;4.18;;;;;;;20.51;61.78;100368.09;5052936;28;20025;-71
2021/09/01 03:14:33;;;;;;;9.20;4.38;;;;;;;20.47;61.80;100370.75;5033914;28;20041;-65
2021/09/01 03:16:58;;;;;;;5.40;4.18;;;;;;;20.23;61.81;100340.28;5052786;28;20029;-69
2021/09/01 03:19:24;;;;;;;4.15;3.53;;;;;;;20.30;61.74;100369.09;5052677;28;20021;-63
2021/09/01 03:21:50;;;;;;;4.95;3.65;;;;;;;20.29;62.25;100363.88;5052407;28;20025;-63
2021/09/01 03:24:16;;;;;;;7.72;4.00;;;;;;;20.32;61.86;100376.94;5052156;28;20028;-66
2021/09/01 03:26:42;;;;;;;7.97;4.05;;;;;;;20.32;61.60;100372.56;5052453;28;20032;-65
2021/09/01 03:29:07;;;;;;;9.52;3.55;;;;;;;20.16;60.95;100340.31;5052726;28;20029;-66
2021/09/01 03:31:32;;;;;;;4.55;3.45;;;;;;;20.45;61.02;100385.59;5052794;28;20115;-64
2021/09/01 03:33:58;;;;;;;6.03;3.65;;;;;;;20.41;60.74;100374.28;5052283;28;20025;-70
2021/09/01 03:36:24;;;;;;;6.32;3.75;;;;;;;20.41;60.84;100382.16;5052505;28;20063;-65
2021/09/01 03:38:49;;;;;;;9.43;3.55;;;;;;;20.41;60.76;100389.13;5052031;28;20028;-68
2021/09/01 03:41:15;;;;;;;9.57;4.32;;;;;;;19.95;62.12;100349.16;5052117;28;20033;-65
2021/09/01 03:43:41;;;;;;;9.63;4.93;;;;;;;19.81;64.17;100396.31;5051142;28;20025;-67
2021/09/01 03:46:07;;;;;;;7.65;5.03;;;;;;;19.50;65.79;100396.38;5052413;28;20032;-63
2021/09/01 03:48:32;;;;;;;7.82;5.25;;;;;;;19.61;65.39;100390.22;5052244;28;20063;-63
2021/09/01 03:50:57;;;;;;;6.85;5.03;;;;;;;19.77;64.75;100396.31;5051969;28;20025;-63
2021/09/01 03:53:23;;;;;;;10.18;5.05;;;;;;;19.87;64.59;100401.53;5050772;28;20032;-64
2021/09/01 03:55:51;;;;;;;9.57;5.43;;;;;;;19.35;66.36;100398.97;5052366;28;20048;-67
2021/09/01 03:58:17;;;;;;;15.13;5.75;;;;;;;19.32;66.40;100399.00;5052398;28;20029;-66
2021/09/01 04:00:43;;;;;;;9.82;5.07;;;;;;;19.20;67.19;100407.69;5052330;28;20544;-67
2021/09/01 04:03:08;;;;;;;13.07;4.70;;;;;;;19.30;66.35;100392.88;5052235;28;20036;-66
2021/09/01 04:05:34;;;;;;;12.25;4.53;;;;;;;19.18;65.60;100365.84;5052307;28;20044;-66
2021/09/01 04:08:00;;;;;;;9.15;4.53;;;;;;;19.23;65.62;100377.16;5051945;28;20052;-66
2021/09/01 04:10:27;;;;;;;11.25;4.53;;;;;;;19.50;65.96;100414.69;5052027;28;20049;-66
2021/09/01 04:12:52;;;;;;;10.60;4.00;;;;;;;19.58;65.04;100417.31;5051840;28;20491;-67
2021/09/01 04:15:18;;;;;;;7.28;4.00;;;;;;;19.49;65.64;100412.94;5051970;28;20032;-67
2021/09/01 04:17:43;;;;;;;11.45;5.00;;;;;;;19.49;65.63;100422.53;5052027;28;20096;-67
2021/09/01 04:20:09;;;;;;;9.38;4.47;;;;;;;19.21;66.13;100384.13;5051860;28;20039;-67
2021/09/01 04:22:35;;;;;;;12.85;4.97;;;;;;;19.48;66.39;100420.81;5051906;28;20032;-67
2021/09/01 04:25:00;;;;;;;9.20;4.75;;;;;;;19.54;65.66;100429.53;5051970;28;20448;-66
2021/09/01 04:27:26;;;;;;;7.60;3.92;;;;;;;19.39;65.26;100393.75;5051940;28;20459;-65
2021/09/01 04:29:52;;;;;;;13.68;5.10;;;;;;;19.71;65.43;100440.00;5052016;28;20021;-67
2021/09/01 04:32:17;;;;;;;7.85;4.60;;;;;;;19.52;65.85;100438.25;5051225;28;20418;-71
2021/09/01 04:34:43;;;;;;;7.53;4.78;;;;;;;19.51;65.97;100442.59;5051797;28;20029;-69
2021/09/01 04:37:09;;;;;;;6.50;4.20;;;;;;;19.57;65.73;100431.25;5051713;28;20482;-66
2021/09/01 04:39:34;;;;;;;8.52;4.55;;;;;;;19.51;66.05;100447.84;5051583;28;20535;-66
2021/09/01 04:42:00;;;;;;;7.25;4.43;;;;;;;19.61;65.09;100440.84;5050765;28;20029;-66
2021/09/01 04:44:25;;;;;;;8.65;4.35;;;;;;;19.75;64.92;100456.56;5051518;28;20082;-66
2021/09/01 04:46:51;;;;;;;7.30;4.80;;;;;;;19.78;65.47;100459.19;5000110;28;20037;-66
2021/09/01 04:49:17;;;;;;;8.38;4.10;;;;;;;19.80;64.45;100454.81;5051336;28;20390;-67
2021/09/01 04:51:42;;;;;;;6.95;4.28;;;;;;;19.95;64.90;100458.31;5050937;28;20040;-63
2021/09/01 04:54:07;;;;;;;6.20;4.63;;;;;;;20.02;65.43;100452.19;5050869;28;20025;-65
2021/09/01 04:56:33;;;;;;;8.43;4.00;;;;;;;20.08;64.30;100454.78;5050800;28;20513;-64
2021/09/01 04:58:59;;;;;;;9.00;4.30;;;;;;;20.17;64.81;100457.38;5051110;28;20017;-67
2021/09/01 05:01:24;;;;;;;8.00;4.13;;;;;;;20.12;64.38;100458.28;5051123;28;20028;-67
2021/09/01 05:03:50;;;;;;;5.70;3.85;;;;;;;20.17;64.22;100446.03;5051448;28;20017;-66
2021/09/01 05:06:15;;;;;;;6.45;4.03;;;;;;;20.23;64.48;100447.78;5051026;28;20057;-71
2021/09/01 05:08:40;;;;;;;8.77;4.40;;;;;;;20.15;65.25;100421.56;5051094;28;20134;-67
2021/09/01 05:11:06;;;;;;;7.65;3.80;;;;;;;20.25;63.51;100407.56;5051293;28;20041;-66
2021/09/01 05:13:31;;;;;;;6.78;4.10;;;;;;;20.57;62.26;100445.88;5051220;28;20079;-66
2021/09/01 05:15:57;;;;;;;6.25;3.85;;;;;;;20.66;61.60;100437.97;5051035;28;20033;-67
2021/09/01 05:18:22;;;;;;;6.20;4.18;;;;;;;20.89;60.49;100446.63;5051120;28;20032;-67
2021/09/01 05:20:49;;;;;;;7.43;3.70;;;;;;;21.11;60.04;100447.34;5050554;28;20037;-67
2021/09/01 05:23:17;;;;;;;6.00;3.53;;;;;;;21.18;59.04;100438.53;5051491;28;20119;-66
2021/09/01 05:25:56;;;;;;;27.83;6.15;;;;;;;21.30;60.44;100437.59;5051312;28;20036;-67
2021/09/01 05:28:33;;;;;;;7.13;3.40;;;;;;;21.40;58.57;100447.13;5033140;28;20025;-66
2021/09/01 05:31:00;;;;;;;5.38;3.70;;;;;;;21.53;59.56;100444.41;5048703;28;20044;-65
2021/09/01 05:33:32;;;;;;;4.95;3.58;;;;;;;21.55;58.84;100430.38;5046874;28;20033;-66
2021/09/01 05:35:58;;;;;;;7.30;3.30;;;;;;;21.73;57.47;100447.75;5034226;28;20029;-65
2021/09/01 05:38:24;;;;;;;5.93;3.65;;;;;;;21.80;58.35;100436.28;5050591;28;20076;-66
2021/09/01 05:40:51;;;;;;;4.80;3.28;;;;;;;21.92;57.88;100426.53;5043849;28;20473;-66
2021/09/01 05:43:20;;;;;;;4.93;3.22;;;;;;;22.06;57.31;100442.19;5030576;28;20703;-67
2021/09/01 05:45:46;;;;;;;7.15;3.72;;;;;;;22.09;55.63;100435.13;5026362;28;20040;-66
2021/09/01 05:48:12;;;;;;;8.43;3.33;;;;;;;22.18;56.63;100436.78;5050511;28;20112;-69
2021/09/01 05:50:42;;;;;;;7.43;3.47;;;;;;;22.06;55.65;100398.34;5050529;28;20460;-63
2021/09/01 05:53:10;;;;;;;9.18;3.47;;;;;;;22.39;54.15;100432.16;5035584;28;20029;-68
2021/09/01 05:55:40;;;;;;;5.03;3.45;;;;;;;22.43;54.52;100432.13;5050596;28;20029;-64
2021/09/01 05:58:10;;;;;;;10.23;3.67;;;;;;;22.43;54.98;100425.97;5050835;28;20048;-68
2021/09/01 06:00:39;;;;;;;8.65;3.60;;;;;;;21.70;56.49;100403.13;5032717;28;20025;-66
2021/09/01 06:03:23;;;;;;;7.38;3.75;;;;;;;21.94;56.22;100423.03;5046076;28;20080;-69
2021/09/01 06:05:53;;;;;;;7.60;4.15;;;;;;;21.98;57.23;100424.72;5037984;28;20033;-63
2021/09/01 06:08:24;;;;;;;6.82;3.35;;;;;;;21.98;55.62;100421.22;5045252;28;20400;-65
2021/09/01 06:10:53;;;;;;;9.95;3.75;;;;;;;22.13;55.67;100425.41;5035676;28;20108;-67
2021/09/01 06:13:19;;;;;;;8.10;3.83;;;;;;;22.13;55.61;100410.53;5034150;28;20025;-65
2021/09/01 06:15:46;;;;;;;6.65;3.97;;;;;;;22.28;56.12;100421.75;5053281;28;20396;-63
2021/09/01 06:18:11;;;;;;;7.32;3.97;;;;;;;22.43;55.63;100418.06;5052772;28;20048;-65
2021/09/01 06:20:38;;;;;;;7.28;4.03;;;;;;;22.29;56.28;100427.00;5034122;28;20072;-64
2021/09/01 06:23:04;;;;;;;9.50;4.53;;;;;;;22.24;56.03;100427.94;5046649;28;20017;-63
2021/09/01 06:25:30;;;;;;;5.20;4.00;;;;;;;22.33;56.95;100424.31;5043400;28;20094;-64
2021/09/01 06:27:56;;;;;;;4.85;3.97;;;;;;;22.41;56.72;100427.78;5043270;28;20460;-64
2021/09/01 06:30:22;;;;;;;5.68;3.83;;;;;;;22.38;56.01;100419.91;5045018;28;20024;-63
2021/09/01 06:32:47;;;;;;;8.52;3.70;;;;;;;22.27;55.55;100407.72;5043438;28;20026;-67
2021/09/01 06:35:13;;;;;;;8.27;4.35;;;;;;;22.14;56.44;100428.06;5041954;28;20025;-66
2021/09/01 06:37:39;;;;;;;5.10;3.47;;;;;;;22.18;56.10;100438.53;5051789;28;20043;-63
2021/09/01 06:40:06;;;;;;;6.63;3.78;;;;;;;21.93;56.09;100428.28;5053097;28;20553;-63
2021/09/01 06:42:32;;;;;;;4.85;4.07;;;;;;;22.20;58.39;100442.88;5001700;28;20029;-64
2021/09/01 06:44:57;;;;;;;6.13;4.20;;;;;;;22.08;56.93;100428.13;5053030;28;20086;-66
2021/09/01 06:47:23;;;;;;;4.93;3.88;;;;;;;22.29;56.89;100431.38;5046693;28;20022;-64
2021/09/01 06:49:49;;;;;;;8.30;3.80;;;;;;;22.29;55.74;100405.06;5040412;28;20021;-66
2021/09/01 06:52:14;;;;;;;9.35;4.07;;;;;;;22.69;55.90;100436.19;5050451;28;20069;-67
2021/09/01 06:54:40;;;;;;;8.88;4.43;;;;;;;22.93;55.12;100432.31;5044615;28;20083;-64
2021/09/01 06:57:05;;;;;;;12.05;4.00;;;;;;;22.83;54.29;100395.59;5043544;28;20104;-65
2021/09/01 06:59:31;;;;;;;9.02;4.13;;;;;;;23.08;55.23;100425.94;5041857;28;20460;-64
2021/09/01 07:01:56;;;;;;;5.22;3.40;;;;;;;23.36;52.79;100429.94;5044185;28;20037;-63
2021/09/01 07:04:22;;;;;;;5.20;3.85;;;;;;;23.35;51.85;100429.06;5046946;28;20104;-63
2021/09/01 07:06:47;;;;;;;6.65;4.45;;;;;;;23.45;50.64;100423.63;5043851;28;20506;-64
2021/09/01 07:09:13;;;;;;;5.47;3.30;;;;;;;23.65;49.69;100426.81;5042302;28;20038;-64
2021/09/01 07:11:38;;;;;;;6.32;3.00;;;;;;;23.67;49.13;100414.44;5042257;28;20017;-67
2021/09/01 07:14:06;;;;;;;5.90;3.20;;;;;;;23.58;47.79;100412.00;5043674;28;20033;-64
2021/09/01 07:16:32;;;;;;;7.60;4.15;;;;;;;23.51;48.29;100429.66;5042264;28;20068;-66
2021/09/01 07:18:58;;;;;;;5.00;3.33;;;;;;;23.46;47.25;100425.38;5042647;28;20029;-64
2021/09/01 07:21:23;;;;;;;9.75;4.88;;;;;;;23.54;47.54;100434.00;5025968;28;20517;-63
2021/09/01 07:23:49;;;;;;;7.38;4.43;;;;;;;23.55;48.64;100427.84;5041622;28;20014;-67
2021/09/01 07:26:14;;;;;;;8.75;4.22;;;;;;;23.73;48.10;100442.47;5047746;28;20032;-66
2021/09/01 07:28:40;;;;;;;6.25;4.75;;;;;;;23.83;48.83;100441.41;5050767;28;20033;-66
2021/09/01 07:31:07;;;;;;;6.90;4.38;;;;;;;23.73;47.84;100402.94;5047270;28;20032;-65
2021/09/01 07:33:33;;;;;;;9.23;4.78;;;;;;;23.93;49.88;100434.22;5043249;28;20547;-65
2021/09/01 07:35:59;;;;;;;8.95;5.18;;;;;;;24.01;49.49;100437.59;5041120;28;20112;-63
2021/09/01 07:38:24;;;;;;;6.97;4.70;;;;;;;23.99;50.44;100435.84;5046789;28;20029;-66
2021/09/01 07:40:50;;;;;;;8.57;5.03;;;;;;;24.06;48.39;100441.00;5050220;28;20395;-64
2021/09/01 07:43:15;;;;;;;9.13;4.88;;;;;;;24.20;49.37;100439.84;5043989;28;20025;-63
2021/09/01 07:45:43;;;;;;;8.48;5.03;;;;;;;24.17;49.52;100426.72;5040942;28;20428;-65
2021/09/01 07:48:13;;;;;;;7.55;5.57;;;;;;;24.44;49.74;100445.53;5047876;28;20491;-65
2021/09/01 07:50:39;;;;;;;6.82;5.22;;;;;;;24.51;50.60;100439.22;5042797;28;20032;-64
2021/09/01 07:53:04;;;;;;;9.30;5.82;;;;;;;24.66;48.85;100438.94;5051697;28;20021;-64
2021/09/01 07:55:30;;;;;;;6.75;5.45;;;;;;;24.65;47.97;100426.63;5032341;28;20025;-65
2021/09/01 07:57:55;;;;;;;8.40;4.80;;;;;;;24.49;46.36;100399.66;5052251;28;20025;-65
2021/09/01 08:00:21;;;;;;;7.63;4.72;;;;;;;24.87;46.26;100434.94;5051806;28;20036;-64
2021/09/01 08:02:46;;;;;;;5.55;4.75;;;;;;;24.58;47.64;100366.91;5051999;28;20666;-65
2021/09/01 08:05:11;;;;;;;11.95;6.05;;;;;;;25.22;47.34;100421.78;5052064;28;20453;-63
2021/09/01 08:07:37;;;;;;;7.63;4.25;;;;;;;25.21;46.73;100428.00;5051709;28;20422;-64
2021/09/01 08:10:04;;;;;;;6.63;3.53;;;;;;;25.04;43.14;100417.81;5052252;28;20546;-64
2021/09/01 08:12:30;;;;;;;9.07;3.75;;;;;;;25.24;42.94;100412.03;5051937;28;20075;-65
2021/09/01 08:14:55;;;;;;;5.68;3.53;;;;;;;25.26;42.69;100418.16;5052712;28;20108;-67
2021/09/01 08:17:21;;;;;;;5.10;3.58;;;;;;;25.39;43.50;100408.19;5052202;28;20479;-66
2021/09/01 08:19:47;;;;;;;5.47;3.70;;;;;;;25.38;43.34;100369.44;5051758;28;20082;-65
2021/09/01 08:22:13;;;;;;;8.38;3.95;;;;;;;25.76;41.83;100394.00;5051612;28;20021;-67
2021/09/01 08:24:39;;;;;;;5.47;3.75;;;;;;;26.03;44.55;100395.91;5033940;28;20032;-64
2021/09/01 08:27:06;;;;;;;4.95;3.50;;;;;;;25.97;40.24;100392.53;5052030;28;20025;-67
2021/09/01 08:29:32;;;;;;;6.18;3.45;;;;;;;25.90;40.95;100395.41;5033412;28;20029;-66
2021/09/01 08:31:57;;;;;;;5.43;3.65;;;;;;;25.73;40.00;100390.56;5051347;28;20372;-66
2021/09/01 08:34:23;;;;;;;7.25;3.88;;;;;;;25.75;41.15;100378.19;5045961;28;20030;-64
2021/09/01 08:36:48;;;;;;;5.50;3.13;;;;;;;25.68;40.92;100388.91;5022298;28;20025;-67
2021/09/01 08:39:14;;;;;;;6.03;3.72;;;;;;;25.78;40.31;100386.91;5042117;28;20017;-67
2021/09/01 08:41:40;;;;;;;4.70;3.08;;;;;;;25.76;40.45;100390.50;5040991;28;20021;-67
2021/09/01 08:44:05;;;;;;;4.63;3.50;;;;;;;25.97;39.88;100379.31;5040118;28;20048;-67
2021/09/01 08:46:32;;;;;;;5.40;3.47;;;;;;;26.24;39.62;100379.44;5039128;28;20037;-66
2021/09/01 08:49:00;;;;;;;5.85;3.80;;;;;;;26.27;39.03;100370.53;5042617;28;20119;-66
2021/09/01 08:51:25;;;;;;;6.80;3.55;;;;;;;26.31;38.95;100380.97;5047385;28;20078;-66
2021/09/01 08:53:53;;;;;;;7.85;3.42;;;;;;;26.43;39.10;100376.22;5047479;28;20041;-67
2021/09/01 08:56:19;;;;;;;5.15;3.80;;;;;;;26.39;39.46;100378.09;5033128;28;20041;-66
2021/09/01 08:58:44;;;;;;;6.65;4.00;;;;;;;26.25;40.60;100338.81;5033184;28;20100;-66
2021/09/01 09:01:38;;;;;;;6.22;4.03;;;;;;;26.53;39.02;100380.34;5051191;28;20472;-64
2021/09/01 09:04:04;;;;;;;7.85;3.92;;;;;;;26.44;39.67;100344.44;5050667;28;20453;-63
2021/09/01 09:06:43;;;;;;;5.07;3.55;;;;;;;26.48;40.93;100371.66;5051140;28;20029;-67
2021/09/01 09:09:13;;;;;;;8.20;3.78;;;;;;;26.46;41.26;100368.22;5050849;28;20067;-67
2021/09/01 09:11:39;;;;;;;5.80;3.10;;;;;;;26.58;38.90;100362.53;5048708;28;20030;-63
2021/09/01 09:14:22;;;;;;;8.27;3.80;;;;;;;26.99;38.56;100356.84;5050526;28;20101;-64
2021/09/01 09:17:01;;;;;;;9.00;3.40;;;;;;;26.96;37.93;100359.59;5049926;28;20479;-64
2021/09/01 09:19:47;;;;;;;10.50;3.40;;;;;;;27.18;37.13;100351.81;5047984;28;20071;-63
2021/09/01 09:22:17;;;;;;;4.68;3.60;;;;;;;27.24;38.40;100350.69;5049055;28;20170;-62
2021/09/01 09:24:43;;;;;;;5.72;3.28;;;;;;;27.26;35.70;100343.56;5050424;28;20025;-69
2021/09/01 09:27:08;;;;;;;4.28;3.30;;;;;;;27.42;37.03;100341.28;5050891;28;20032;-62
2021/09/01 09:29:34;;;;;;;6.40;3.15;;;;;;;27.23;34.55;100349.84;5033106;28;20021;-63
2021/09/01 09:32:00;;;;;;;4.30;2.90;;;;;;;27.14;35.77;100328.94;5050695;28;20106;-64
2021/09/01 09:34:40;;;;;;;5.78;3.13;;;;;;;27.34;34.97;100280.56;5050757;28;20029;-63
2021/09/01 09:37:12;;;;;;;4.15;3.20;;;;;;;27.65;35.63;100318.38;5050454;28;20060;-66
2021/09/01 09:39:51;;;;;;;6.60;3.60;;;;;;;27.67;34.79;100321.84;5050464;28;20029;-67
2021/09/01 09:42:34;;;;;;;5.45;3.75;;;;;;;27.39;34.60;100315.72;5040728;28;20049;-63
2021/09/01 09:45:17;;;;;;;5.53;3.60;;;;;;;27.42;34.62;100312.97;5045708;28;20491;-64
2021/09/01 09:47:50;;;;;;;6.10;3.85;;;;;;;27.84;34.79;100303.53;5046243;28;20632;-65
2021/09/01 09:50:16;;;;;;;5.38;3.88;;;;;;;27.96;34.27;100296.03;5055083;28;20036;-65
2021/09/01 09:52:42;;;;;;;8.77;3.95;;;;;;;28.22;33.83;100284.41;5036806;28;20025;-65
2021/09/01 09:55:16;;;;;;;4.20;3.47;;;;;;;28.27;38.54;100290.41;5054183;28;20031;-65
2021/09/01 09:57:56;;;;;;;5.22;3.95;;;;;;;28.52;34.69;100284.09;5054609;28;20039;-64
2021/09/01 10:00:23;;;;;;;5.18;4.00;;;;;;;28.46;34.43;100284.34;5054473;28;20401;-64
2021/09/01 10:02:49;;;;;;;5.68;3.90;;;;;;;28.73;33.36;100277.06;5054655;28;20099;-64
2021/09/01 10:05:16;;;;;;;8.63;4.13;;;;;;;29.08;32.18;100266.72;5054516;28;20025;-64
2021/09/01 10:07:44;;;;;;;4.57;3.80;;;;;;;29.30;31.50;100271.16;5054132;28;20049;-64
2021/09/01 10:10:11;;;;;;;5.28;3.80;;;;;;;29.38;31.78;100258.34;5053800;28;20032;-64
2021/09/01 10:12:56;;;;;;;5.18;3.72;;;;;;;29.45;31.76;100267.78;5053797;28;20406;-64
2021/09/01 10:15:31;;;;;;;6.32;3.88;;;;;;;29.56;31.13;100256.69;5053893;28;20021;-64
2021/09/01 10:18:05;;;;;;;5.05;3.80;;;;;;;29.61;30.72;100259.97;5054124;28;20191;-64
2021/09/01 10:20:31;;;;;;;7.22;4.13;;;;;;;29.75;31.80;100258.50;5053751;28;20028;-64
2021/09/01 10:22:59;;;;;;;6.20;3.72;;;;;;;29.94;31.11;100243.38;5054191;28;20028;-64
2021/09/01 10:25:49;;;;;;;5.68;3.60;;;;;;;29.83;30.56;100246.56;5053881;28;20025;-64
2021/09/01 10:28:34;;;;;;;5.03;2.92;;;;;;;29.84;30.52;100234.09;5047486;28;20123;-64
2021/09/01 10:31:08;;;;;;;5.03;3.38;;;;;;;29.85;29.55;100230.50;5044175;28;20032;-63
2021/09/01 10:33:39;;;;;;;4.55;3.20;;;;;;;29.63;30.41;100226.16;5043839;28;20388;-63
2021/09/01 10:36:23;;;;;;;4.75;3.20;;;;;;;29.59;30.76;100223.75;5044911;28;20548;-65
2021/09/01 10:38:53;;;;;;;5.32;2.90;;;;;;;29.84;29.30;100211.00;5043539;28;20438;-65
2021/09/01 10:41:39;;;;;;;6.03;3.28;;;;;;;30.07;31.93;100209.06;5044638;28;20469;-65
2021/09/01 10:44:17;;;;;;;8.73;3.00;;;;;;;29.96;30.26;100190.09;5043450;28;20043;-69
2021/09/01 10:46:52;;;;;;;3.80;2.75;;;;;;;30.20;29.37;100203.16;5045171;28;20035;-65
2021/09/01 10:49:19;;;;;;;4.00;2.60;;;;;;;30.04;29.19;100197.72;5044296;28;20037;-66
2021/09/01 10:51:49;;;;;;;4.50;2.92;;;;;;;30.47;29.51;100192.94;5043556;28;20107;-65
2021/09/01 10:54:37;;;;;;;5.18;3.00;;;;;;;30.02;29.51;100195.13;5044217;28;20029;-65
2021/09/01 10:57:06;;;;;;;7.93;3.08;;;;;;;30.44;29.65;100188.59;5043603;28;20489;-65
2021/09/01 10:59:39;;;;;;;18.23;4.03;;;;;;;30.81;28.73;100185.88;5044510;28;20060;-65
2021/09/01 11:02:15;;;;;;;6.22;3.20;;;;;;;30.88;28.06;100173.97;5044541;28;20162;-66
2021/09/01 11:04:58;;;;;;;5.22;2.90;;;;;;;31.05;30.20;100185.53;5048776;28;20029;-68
2021/09/01 11:07:29;;;;;;;7.18;3.10;;;;;;;30.23;29.47;100085.84;5044263;28;20053;-64
2021/09/01 11:09:57;;;;;;;5.10;3.20;;;;;;;30.20;29.68;100166.72;5044117;28;20491;-64
2021/09/01 11:12:23;;;;;;;8.40;3.40;;;;;;;30.32;30.61;100171.44;5045782;28;20025;-63
2021/09/01 11:14:50;;;;;;;6.22;3.30;;;;;;;30.42;29.08;100168.28;5044405;28;20060;-64
2021/09/01 11:17:21;;;;;;;5.50;3.20;;;;;;;30.91;28.02;100172.94;5010608;28;20104;-67
2021/09/01 11:19:49;;;;;;;5.95;3.10;;;;;;;31.08;27.47;100167.59;5010939;28;20034;-66
2021/09/01 11:22:18;;;;;;;6.53;4.00;;;;;;;30.33;29.88;100135.88;5010823;28;20044;-66
2021/09/01 11:24:47;;;;;;;6.72;3.78;;;;;;;30.08;31.32;100140.72;5010841;28;20029;-67
2021/09/01 11:27:14;;;;;;;5.15;3.30;;;;;;;30.34;30.74;100172.22;5010713;28;20084;-66